Terminal Aerodrome Forecast
Issued by NWS Boston, MA

Home | Current Version | Previous Version | Text Only | Print | Product List | Glossary On
Versions: 1 2 3 4 5 6 7 8 9 10 11 12 13 14 15 16 17 18 19 20 21 22 23 24 25 26 27 28 29 30 31 32 33 34 35 36 37 38 39 40 41
000
FTUS41 KBOX 231128
TAFBDL
TAF
KBDL 231128Z 2312/2418 18007KT P6SM BKN060
     FM231600 18004KT P6SM SCT100
     FM240300 00000KT P6SM BKN110
     FM240600 VRB03KT 5SM -RA BR BKN020
     FM240800 12004KT 3SM -RA BR OVC010 WS020/17030KT
     FM241200 13009KT 3SM -RA BR OVC008 WS020/16045KT=

USA.gov is the U.S. government's official web portal to all federal, state and local government web resources and services.